Time;durP1;ratioP1;P1;durP2;ratioP2;P2;SDS_P1;SDS_P2;PMS_P1;PMS_P2;Temp;Humidity;BMP_temperature;BMP_pressure;BME280_temperature;BME280_humidity;BME280_pressure;Samples;Min_cycle;Max_cycle;Signal;HPM_P1;HPM_P2
2021/05/17 00:02:07;;;;;;;;;;;20.40;60.20;;;;;;5058003;28;19913;-77
2021/05/17 00:04:34;;;;;;;;;;;20.40;60.20;;;;;;5031845;28;19913;-76
2021/05/17 00:07:01;;;;;;;;;;;20.40;60.20;;;;;;5051396;28;20350;-77
2021/05/17 00:09:27;;;;;;;;;;;20.40;60.20;;;;;;5031318;28;20381;-77
2021/05/17 00:11:52;;;;;;;;;;;20.40;60.20;;;;;;4983647;28;1297390;-76
2021/05/17 00:14:19;;;;;;;;;;;20.40;60.20;;;;;;5050794;28;19937;-76
2021/05/17 00:16:45;;;;;;;;;;;20.40;60.20;;;;;;5045699;28;19913;-75
2021/05/17 00:19:12;;;;;;;;;;;20.40;60.20;;;;;;5033782;28;20486;-76
2021/05/17 00:21:38;;;;;;;;;;;20.30;60.20;;;;;;5051951;28;19916;-76
2021/05/17 00:24:04;;;;;;;;;;;20.30;60.20;;;;;;5050482;28;20262;-77
2021/05/17 00:26:29;;;;;;;;;;;20.40;60.20;;;;;;5033359;28;19925;-77
2021/05/17 00:28:55;;;;;;;;;;;20.40;60.20;;;;;;5051309;28;19920;-76
2021/05/17 00:31:21;;;;;;;;;;;20.40;60.20;;;;;;5032680;28;19943;-79
2021/05/17 00:33:46;;;;;;;;;;;20.30;60.20;;;;;;5051042;28;19913;-76
2021/05/17 00:36:12;;;;;;;;;;;20.30;60.20;;;;;;5051386;28;19923;-76
2021/05/17 00:38:37;;;;;;;;;;;20.30;60.20;;;;;;5049550;28;20008;-76
2021/05/17 00:41:03;;;;;;;;;;;20.30;60.20;;;;;;5032507;28;19913;-76
2021/05/17 00:43:37;;;;;;;;;;;20.30;60.20;;;;;;5039237;28;19912;-77
2021/05/17 00:46:07;;;;;;;;;;;20.40;60.20;;;;;;5033668;28;19912;-76
2021/05/17 00:48:34;;;;;;;;;;;20.30;60.20;;;;;;5049470;28;19917;-76
2021/05/17 00:51:01;;;;;;;;;;;20.30;60.20;;;;;;5054791;28;19917;-77
2021/05/17 00:53:26;;;;;;;;;;;20.30;60.20;;;;;;5055730;28;19913;-76
2021/05/17 00:55:52;;;;;;;;;;;20.30;60.20;;;;;;5035996;28;19935;-76
2021/05/17 00:58:17;;;;;;;;;;;20.30;60.20;;;;;;5032906;28;19913;-76
2021/05/17 01:00:44;;;;;;;;;;;20.30;60.20;;;;;;5052754;28;19921;-76
2021/05/17 01:03:09;;;;;;;;;;;20.40;60.20;;;;;;5039064;28;19913;-76
2021/05/17 01:05:36;;;;;;;;;;;20.30;60.20;;;;;;5051982;28;19928;-77
2021/05/17 01:08:02;;;;;;;;;;;20.30;60.20;;;;;;5040827;28;19916;-77
2021/05/17 01:10:29;;;;;;;;;;;20.30;60.20;;;;;;5054089;28;20329;-77
2021/05/17 01:12:55;;;;;;;;;;;20.30;60.10;;;;;;5044714;28;19971;-76
2021/05/17 01:15:20;;;;;;;;;;;20.30;60.10;;;;;;5053622;28;19921;-76
2021/05/17 01:17:46;;;;;;;;;;;20.30;60.20;;;;;;5035751;28;19917;-76
2021/05/17 01:20:16;;;;;;;;;;;20.30;60.10;;;;;;5053626;28;19917;-77
2021/05/17 01:25:15;;;;;;;;;;;20.30;60.10;;;;;;5051705;28;19913;-76
2021/05/17 01:27:41;;;;;;;;;;;20.30;60.10;;;;;;5051876;28;19917;-76
2021/05/17 01:30:07;;;;;;;;;;;20.30;60.10;;;;;;5047935;28;20832;-76
2021/05/17 01:32:32;;;;;;;;;;;20.30;60.10;;;;;;5055028;28;19917;-76
2021/05/17 01:34:58;;;;;;;;;;;20.30;60.10;;;;;;5053325;28;19913;-77
2021/05/17 01:37:25;;;;;;;;;;;20.30;60.10;;;;;;5054889;28;19920;-76
2021/05/17 01:39:52;;;;;;;;;;;20.30;60.10;;;;;;5035761;28;19925;-76
2021/05/17 01:42:18;;;;;;;;;;;20.30;60.10;;;;;;5052952;28;19920;-77
2021/05/17 01:44:45;;;;;;;;;;;20.30;60.10;;;;;;5043704;28;19913;-76
2021/05/17 01:47:11;;;;;;;;;;;20.30;60.10;;;;;;5033988;28;19923;-76
2021/05/17 01:49:39;;;;;;;;;;;20.30;60.10;;;;;;5053187;28;19921;-76
2021/05/17 01:52:05;;;;;;;;;;;20.30;60.10;;;;;;5053350;28;19927;-76
2021/05/17 01:54:31;;;;;;;;;;;20.30;60.10;;;;;;5053609;28;19917;-76
2021/05/17 01:56:56;;;;;;;;;;;20.30;60.10;;;;;;5033145;28;19955;-76
2021/05/17 01:59:32;;;;;;;;;;;20.30;60.10;;;;;;5018460;28;19913;-77
2021/05/17 02:01:58;;;;;;;;;;;20.30;60.10;;;;;;5050955;28;19967;-78
2021/05/17 02:04:24;;;;;;;;;;;20.30;60.10;;;;;;5054059;28;19913;-76
2021/05/17 02:06:50;;;;;;;;;;;20.30;60.10;;;;;;5036001;28;19966;-76
2021/05/17 02:09:16;;;;;;;;;;;20.30;60.10;;;;;;5053835;28;19920;-76
2021/05/17 02:11:42;;;;;;;;;;;20.30;60.10;;;;;;5052882;28;19921;-76
2021/05/17 02:14:08;;;;;;;;;;;20.30;60.10;;;;;;5053278;28;19920;-76
2021/05/17 02:16:34;;;;;;;;;;;20.30;60.10;;;;;;5050885;28;19920;-77
2021/05/17 02:18:59;;;;;;;;;;;20.30;60.10;;;;;;5052404;28;19921;-80
2021/05/17 02:21:25;;;;;;;;;;;20.30;60.10;;;;;;5052749;28;19951;-76
2021/05/17 02:23:50;;;;;;;;;;;20.30;60.10;;;;;;5033735;28;20011;-76
2021/05/17 02:26:17;;;;;;;;;;;20.30;60.10;;;;;;5036338;28;20054;-79
2021/05/17 02:28:43;;;;;;;;;;;20.30;60.10;;;;;;5053005;28;19927;-76
2021/05/17 02:31:09;;;;;;;;;;;20.30;60.10;;;;;;5049109;28;19913;-76
2021/05/17 02:33:35;;;;;;;;;;;20.30;60.10;;;;;;5035049;28;19913;-76
2021/05/17 02:36:01;;;;;;;;;;;20.30;60.10;;;;;;5033431;28;19917;-77
2021/05/17 02:38:27;;;;;;;;;;;20.30;60.10;;;;;;5033682;28;19919;-76
2021/05/17 02:40:53;;;;;;;;;;;20.30;60.10;;;;;;5035315;28;19913;-76
2021/05/17 02:43:22;;;;;;;;;;;20.30;60.10;;;;;;5041709;28;19920;-76
2021/05/17 02:45:48;;;;;;;;;;;20.30;60.10;;;;;;5050236;28;19913;-76
2021/05/17 02:48:13;;;;;;;;;;;20.30;60.10;;;;;;5051452;28;19920;-76
2021/05/17 02:50:41;;;;;;;;;;;20.30;60.10;;;;;;5034139;28;19913;-78
2021/05/17 02:53:25;;;;;;;;;;;20.30;60.10;;;;;;5048892;28;20266;-77
2021/05/17 02:55:53;;;;;;;;;;;20.30;60.10;;;;;;5045652;28;19913;-76
2021/05/17 02:58:20;;;;;;;;;;;20.30;60.00;;;;;;5052314;28;20324;-78
2021/05/17 03:00:49;;;;;;;;;;;20.30;60.10;;;;;;5052157;28;19967;-76
2021/05/17 03:03:21;;;;;;;;;;;20.30;60.00;;;;;;5045798;28;19913;-76
2021/05/17 03:05:52;;;;;;;;;;;20.30;60.10;;;;;;5052915;28;19943;-76
2021/05/17 03:08:19;;;;;;;;;;;20.30;60.00;;;;;;5044845;28;19916;-77
2021/05/17 03:10:45;;;;;;;;;;;20.30;60.10;;;;;;5052010;28;19927;-76
2021/05/17 03:13:12;;;;;;;;;;;20.30;60.10;;;;;;5031001;28;20019;-76
2021/05/17 03:15:39;;;;;;;;;;;20.30;60.10;;;;;;5051707;28;19952;-76
2021/05/17 03:18:04;;;;;;;;;;;20.30;60.10;;;;;;5034580;28;19948;-77
2021/05/17 03:20:30;;;;;;;;;;;20.30;60.10;;;;;;5051444;28;19952;-76
2021/05/17 03:22:56;;;;;;;;;;;20.30;60.00;;;;;;5034131;28;19960;-75
2021/05/17 03:25:30;;;;;;;;;;;20.30;60.10;;;;;;5051285;28;20390;-76
2021/05/17 03:27:56;;;;;;;;;;;20.30;60.00;;;;;;5052406;28;19952;-80
2021/05/17 03:30:22;;;;;;;;;;;20.30;60.10;;;;;;5030586;28;19956;-79
2021/05/17 03:32:47;;;;;;;;;;;20.30;60.10;;;;;;5041568;28;19970;-79
2021/05/17 03:35:13;;;;;;;;;;;20.30;60.10;;;;;;5051811;28;19920;-79
2021/05/17 03:37:39;;;;;;;;;;;20.20;60.10;;;;;;5051882;28;19919;-80
2021/05/17 03:40:05;;;;;;;;;;;20.30;60.10;;;;;;5034604;28;19913;-80
2021/05/17 03:42:30;;;;;;;;;;;20.20;60.00;;;;;;5034527;28;19926;-79
2021/05/17 03:44:56;;;;;;;;;;;20.20;60.00;;;;;;5051462;28;20003;-82
2021/05/17 03:47:21;;;;;;;;;;;20.30;60.00;;;;;;5051941;28;20054;-79
2021/05/17 03:49:47;;;;;;;;;;;20.30;60.00;;;;;;5032988;28;20389;-79
2021/05/17 03:52:12;;;;;;;;;;;20.20;60.00;;;;;;5049790;28;19921;-79
2021/05/17 03:54:38;;;;;;;;;;;20.20;60.00;;;;;;5049342;28;19913;-79
2021/05/17 03:57:04;;;;;;;;;;;20.30;60.10;;;;;;5032629;28;19919;-79
2021/05/17 03:59:31;;;;;;;;;;;20.30;60.00;;;;;;5021595;28;20002;-80
2021/05/17 04:01:57;;;;;;;;;;;20.30;60.00;;;;;;5041755;28;19913;-76
2021/05/17 04:04:24;;;;;;;;;;;20.20;60.00;;;;;;5056948;28;19927;-76
2021/05/17 04:06:58;;;;;;;;;;;20.20;60.00;;;;;;5034552;28;19913;-75
2021/05/17 04:15:06;;;;;;;;;;;20.20;60.00;;;;;;5023173;28;20000;-76
2021/05/17 04:17:31;;;;;;;;;;;20.30;60.00;;;;;;5050268;28;20008;-76
2021/05/17 04:19:57;;;;;;;;;;;20.20;60.00;;;;;;5051120;28;19928;-76
2021/05/17 04:22:22;;;;;;;;;;;20.30;60.00;;;;;;5030313;28;19955;-75
2021/05/17 04:24:48;;;;;;;;;;;20.20;60.00;;;;;;5036338;28;19920;-78
2021/05/17 04:27:13;;;;;;;;;;;20.20;60.00;;;;;;5035306;28;19913;-76
2021/05/17 04:29:39;;;;;;;;;;;20.20;60.00;;;;;;5036569;28;19924;-78
2021/05/17 04:32:04;;;;;;;;;;;20.30;60.00;;;;;;5056658;28;20290;-76
2021/05/17 04:34:30;;;;;;;;;;;20.20;60.00;;;;;;5050399;28;19913;-76
2021/05/17 04:36:55;;;;;;;;;;;20.30;60.00;;;;;;5055771;28;19920;-76
2021/05/17 04:39:21;;;;;;;;;;;20.20;60.00;;;;;;5055073;28;19935;-76
2021/05/17 04:41:46;;;;;;;;;;;20.20;60.00;;;;;;5032498;28;19917;-77
2021/05/17 04:44:12;;;;;;;;;;;20.20;60.00;;;;;;5053904;28;20385;-76
2021/05/17 04:46:38;;;;;;;;;;;20.20;60.00;;;;;;5053693;28;19919;-76
2021/05/17 04:49:03;;;;;;;;;;;20.20;59.90;;;;;;5029387;28;19967;-76
2021/05/17 04:51:28;;;;;;;;;;;20.30;59.90;;;;;;5053540;28;19952;-76
2021/05/17 04:53:54;;;;;;;;;;;20.30;59.90;;;;;;5035953;28;20516;-78
2021/05/17 04:56:20;;;;;;;;;;;20.30;59.90;;;;;;5055293;28;19924;-76
2021/05/17 04:58:45;;;;;;;;;;;20.20;59.90;;;;;;5052886;28;20400;-76
2021/05/17 05:01:11;;;;;;;;;;;20.30;59.90;;;;;;5052225;28;19916;-76
2021/05/17 05:03:37;;;;;;;;;;;20.30;59.90;;;;;;5032167;28;19970;-76
2021/05/17 05:06:02;;;;;;;;;;;20.30;59.80;;;;;;5036672;28;20008;-76
2021/05/17 05:08:31;;;;;;;;;;;20.30;59.80;;;;;;5036315;28;19959;-78
2021/05/17 05:10:56;;;;;;;;;;;20.30;59.80;;;;;;5053879;28;19935;-76
2021/05/17 05:13:22;;;;;;;;;;;20.30;59.80;;;;;;5049881;28;19912;-77
2021/05/17 05:15:54;;;;;;;;;;;20.30;59.70;;;;;;5032635;28;20007;-76
2021/05/17 05:18:20;;;;;;;;;;;20.30;59.70;;;;;;5053594;28;19913;-78
2021/05/17 05:20:46;;;;;;;;;;;20.30;59.70;;;;;;5031928;28;20012;-76
2021/05/17 05:23:12;;;;;;;;;;;20.30;59.70;;;;;;5053145;28;20015;-76
2021/05/17 05:28:11;;;;;;;;;;;20.30;59.70;;;;;;5053968;28;19916;-77
2021/05/17 05:31:03;;;;;;;;;;;20.30;59.60;;;;;;5037722;28;19970;-76
2021/05/17 05:33:23;;;;;;;;;;;20.30;59.60;;;;;;5044239;28;19913;-76
2021/05/17 05:35:48;;;;;;;;;;;20.30;59.50;;;;;;5049389;28;19958;-76
2021/05/17 05:38:14;;;;;;;;;;;20.30;59.40;;;;;;5053863;28;20282;-78
2021/05/17 05:40:40;;;;;;;;;;;20.30;59.40;;;;;;5036836;28;19920;-76
2021/05/17 05:43:05;;;;;;;;;;;20.40;59.30;;;;;;5036435;28;19913;-76
2021/05/17 05:45:33;;;;;;;;;;;20.40;59.30;;;;;;5042254;28;19941;-76
2021/05/17 05:47:59;;;;;;;;;;;20.40;59.30;;;;;;5030583;28;20408;-76
2021/05/17 05:50:24;;;;;;;;;;;20.40;59.20;;;;;;5051358;28;19929;-76
2021/05/17 05:52:50;;;;;;;;;;;20.40;59.20;;;;;;5053640;28;20244;-76
2021/05/17 05:55:17;;;;;;;;;;;20.40;59.20;;;;;;5035507;28;19956;-76
2021/05/17 05:57:43;;;;;;;;;;;20.40;59.10;;;;;;5035368;28;19913;-76
2021/05/17 06:00:11;;;;;;;;;;;20.50;59.00;;;;;;5037662;28;20038;-76
2021/05/17 06:02:38;;;;;;;;;;;20.50;59.00;;;;;;5053599;28;19916;-76
2021/05/17 06:05:04;;;;;;;;;;;20.40;59.00;;;;;;5036364;28;19913;-76
2021/05/17 06:07:29;;;;;;;;;;;20.40;59.10;;;;;;5035402;28;19913;-78
2021/05/17 06:09:55;;;;;;;;;;;20.40;59.20;;;;;;5036285;28;20362;-76
2021/05/17 06:12:22;;;;;;;;;;;20.40;59.20;;;;;;5052927;28;19975;-77
2021/05/17 06:14:49;;;;;;;;;;;20.40;59.20;;;;;;5037827;28;20269;-76
2021/05/17 06:17:15;;;;;;;;;;;20.40;59.20;;;;;;5038068;28;20367;-76
2021/05/17 06:19:40;;;;;;;;;;;20.40;59.10;;;;;;5052187;28;19917;-77
2021/05/17 06:22:06;;;;;;;;;;;20.40;59.10;;;;;;5050983;28;19939;-77
2021/05/17 06:24:32;;;;;;;;;;;20.40;59.10;;;;;;5052493;28;20357;-78
2021/05/17 06:26:57;;;;;;;;;;;20.40;59.10;;;;;;5054475;28;20274;-78
2021/05/17 06:29:23;;;;;;;;;;;20.40;59.10;;;;;;5050217;28;19928;-76
2021/05/17 06:31:50;;;;;;;;;;;20.40;59.10;;;;;;5054597;28;19920;-77
2021/05/17 06:34:15;;;;;;;;;;;20.40;59.10;;;;;;5035183;28;19913;-78
2021/05/17 06:36:41;;;;;;;;;;;20.50;58.90;;;;;;5053353;28;19923;-78
2021/05/17 06:39:09;;;;;;;;;;;20.50;58.80;;;;;;5027485;28;19913;-76
2021/05/17 06:41:35;;;;;;;;;;;20.60;58.70;;;;;;5036213;28;19913;-76
2021/05/17 06:44:01;;;;;;;;;;;20.60;58.60;;;;;;5060291;28;19919;-77
2021/05/17 06:46:26;;;;;;;;;;;20.60;58.60;;;;;;5034350;28;20025;-76
2021/05/17 06:48:52;;;;;;;;;;;20.60;58.50;;;;;;5033437;28;19971;-76
2021/05/17 06:51:19;;;;;;;;;;;20.60;58.50;;;;;;5030571;28;19920;-77
2021/05/17 06:53:45;;;;;;;;;;;20.60;58.40;;;;;;5038127;28;19913;-80
2021/05/17 06:58:57;;;;;;;;;;;20.70;58.20;;;;;;5052287;28;19920;-82
2021/05/17 07:01:23;;;;;;;;;;;20.80;58.10;;;;;;5036983;28;20019;-80
2021/05/17 07:03:49;;;;;;;;;;;20.80;58.00;;;;;;5050888;28;19920;-86
2021/05/17 07:06:19;;;;;;;;;;;20.80;57.80;;;;;;5053789;28;19913;-82
